Delray, West Virginia
Current Conditions -  °F | °C
As of 5:15 AM on Friday 19 Dec 2014 (Local Time) from KOKV Reporting Station
Overcast Overcast  
Wind Chill: 24°   Ceiling: 3000
Heat Index: 34°   Visibility: 10mi
Dew Point: 19°   Wind: 14mph
Humidity: 56%   Direction: 300°WNW
Pressure: 30.1"   Gusts: NA
Location:  39.21°N, 78.59°W
Report Text: KOKV 191015Z AUTO 30012KT 10SM OVC030 01/M07 A3010 RMK AO2
Loading
Personal Weather Stations






























Interactive Weather Map New forecast layout! Learn more

10-Day Weather Forecast

Advertisements
Track Severe Weather on mobile